sensor_id;sensor_type;location;lat;lon;timestamp;temperature;humidity
57576;DHT22;43412;-33.800;150.804;2022-07-09T00:02:10;20.70;87.80
57576;DHT22;43412;-33.800;150.804;2022-07-09T00:04:37;20.80;88.50
57576;DHT22;43412;-33.800;150.804;2022-07-09T00:07:05;21.00;89.60
57576;DHT22;43412;-33.800;150.804;2022-07-09T00:09:32;21.10;90.30
57576;DHT22;43412;-33.800;150.804;2022-07-09T00:11:59;21.30;89.90
57576;DHT22;43412;-33.800;150.804;2022-07-09T00:14:27;21.30;84.90
57576;DHT22;43412;-33.800;150.804;2022-07-09T00:16:56;21.10;86.60
57576;DHT22;43412;-33.800;150.804;2022-07-09T00:19:23;21.50;82.90
57576;DHT22;43412;-33.800;150.804;2022-07-09T00:21:51;21.50;81.00
57576;DHT22;43412;-33.800;150.804;2022-07-09T00:24:18;21.40;83.20
57576;DHT22;43412;-33.800;150.804;2022-07-09T00:26:45;21.80;82.30
57576;DHT22;43412;-33.800;150.804;2022-07-09T00:29:12;22.00;82.70
57576;DHT22;43412;-33.800;150.804;2022-07-09T00:31:40;22.20;81.20
57576;DHT22;43412;-33.800;150.804;2022-07-09T00:34:07;22.60;81.40
57576;DHT22;43412;-33.800;150.804;2022-07-09T00:36:34;22.80;82.10
57576;DHT22;43412;-33.800;150.804;2022-07-09T00:39:02;23.00;80.30
57576;DHT22;43412;-33.800;150.804;2022-07-09T00:41:29;23.10;79.30
57576;DHT22;43412;-33.800;150.804;2022-07-09T00:43:57;23.40;79.00
57576;DHT22;43412;-33.800;150.804;2022-07-09T00:46:24;23.20;77.10
57576;DHT22;43412;-33.800;150.804;2022-07-09T00:48:51;23.40;76.40
57576;DHT22;43412;-33.800;150.804;2022-07-09T00:51:19;23.40;76.50
57576;DHT22;43412;-33.800;150.804;2022-07-09T00:53:47;23.40;75.60
57576;DHT22;43412;-33.800;150.804;2022-07-09T00:56:15;23.50;77.60
57576;DHT22;43412;-33.800;150.804;2022-07-09T00:58:45;23.90;76.80
57576;DHT22;43412;-33.800;150.804;2022-07-09T01:01:13;24.00;74.90
57576;DHT22;43412;-33.800;150.804;2022-07-09T01:03:40;24.00;74.70
57576;DHT22;43412;-33.800;150.804;2022-07-09T01:06:08;24.30;73.80
57576;DHT22;43412;-33.800;150.804;2022-07-09T01:08:35;24.30;72.50
57576;DHT22;43412;-33.800;150.804;2022-07-09T01:11:03;24.60;74.80
57576;DHT22;43412;-33.800;150.804;2022-07-09T01:13:33;24.60;73.30
57576;DHT22;43412;-33.800;150.804;2022-07-09T01:16:00;24.70;71.30
57576;DHT22;43412;-33.800;150.804;2022-07-09T01:18:28;24.50;71.20
57576;DHT22;43412;-33.800;150.804;2022-07-09T01:20:55;24.80;72.60
57576;DHT22;43412;-33.800;150.804;2022-07-09T01:23:23;25.10;72.70
57576;DHT22;43412;-33.800;150.804;2022-07-09T01:25:50;25.30;70.80
57576;DHT22;43412;-33.800;150.804;2022-07-09T01:28:18;25.50;71.10
57576;DHT22;43412;-33.800;150.804;2022-07-09T01:30:45;25.40;71.00
57576;DHT22;43412;-33.800;150.804;2022-07-09T01:33:13;25.50;72.00
57576;DHT22;43412;-33.800;150.804;2022-07-09T01:35:40;25.60;70.70
57576;DHT22;43412;-33.800;150.804;2022-07-09T01:38:08;25.50;69.90
57576;DHT22;43412;-33.800;150.804;2022-07-09T01:40:35;25.40;70.90
57576;DHT22;43412;-33.800;150.804;2022-07-09T01:43:03;25.40;70.70
57576;DHT22;43412;-33.800;150.804;2022-07-09T01:45:30;25.50;70.70
57576;DHT22;43412;-33.800;150.804;2022-07-09T01:47:58;25.70;69.40
57576;DHT22;43412;-33.800;150.804;2022-07-09T01:50:25;25.60;68.90
57576;DHT22;43412;-33.800;150.804;2022-07-09T01:52:53;25.40;69.60
57576;DHT22;43412;-33.800;150.804;2022-07-09T01:55:20;25.50;70.40
57576;DHT22;43412;-33.800;150.804;2022-07-09T01:57:47;25.80;70.00
57576;DHT22;43412;-33.800;150.804;2022-07-09T02:00:15;26.00;70.80
57576;DHT22;43412;-33.800;150.804;2022-07-09T02:02:45;26.30;69.90
57576;DHT22;43412;-33.800;150.804;2022-07-09T02:05:12;26.40;70.10
57576;DHT22;43412;-33.800;150.804;2022-07-09T02:07:39;26.40;68.40
57576;DHT22;43412;-33.800;150.804;2022-07-09T02:10:07;26.20;67.90
57576;DHT22;43412;-33.800;150.804;2022-07-09T02:12:34;26.00;69.30
57576;DHT22;43412;-33.800;150.804;2022-07-09T02:15:02;25.80;69.40
57576;DHT22;43412;-33.800;150.804;2022-07-09T02:17:30;25.90;69.90
57576;DHT22;43412;-33.800;150.804;2022-07-09T02:19:57;25.80;70.80
57576;DHT22;43412;-33.800;150.804;2022-07-09T02:22:24;25.90;68.70
57576;DHT22;43412;-33.800;150.804;2022-07-09T02:24:52;26.00;68.70
57576;DHT22;43412;-33.800;150.804;2022-07-09T02:27:19;26.10;69.90
57576;DHT22;43412;-33.800;150.804;2022-07-09T02:29:47;26.10;70.20
57576;DHT22;43412;-33.800;150.804;2022-07-09T02:32:14;26.00;69.20
57576;DHT22;43412;-33.800;150.804;2022-07-09T02:34:42;25.70;68.90
57576;DHT22;43412;-33.800;150.804;2022-07-09T02:37:09;25.50;68.60
57576;DHT22;43412;-33.800;150.804;2022-07-09T02:39:36;25.10;70.60
57576;DHT22;43412;-33.800;150.804;2022-07-09T02:42:04;25.10;69.70
57576;DHT22;43412;-33.800;150.804;2022-07-09T02:44:31;25.20;70.90
57576;DHT22;43412;-33.800;150.804;2022-07-09T02:46:59;25.00;70.20
57576;DHT22;43412;-33.800;150.804;2022-07-09T02:49:26;24.70;70.50
57576;DHT22;43412;-33.800;150.804;2022-07-09T02:51:53;24.70;71.70
57576;DHT22;43412;-33.800;150.804;2022-07-09T02:54:24;24.60;71.20
57576;DHT22;43412;-33.800;150.804;2022-07-09T02:56:51;24.30;71.20
57576;DHT22;43412;-33.800;150.804;2022-07-09T02:59:19;24.00;71.90
57576;DHT22;43412;-33.800;150.804;2022-07-09T03:01:47;23.70;72.50
57576;DHT22;43412;-33.800;150.804;2022-07-09T03:04:14;23.70;72.90
57576;DHT22;43412;-33.800;150.804;2022-07-09T03:06:41;23.60;72.80
57576;DHT22;43412;-33.800;150.804;2022-07-09T03:09:09;23.50;72.40
57576;DHT22;43412;-33.800;150.804;2022-07-09T03:11:36;23.00;71.70
57576;DHT22;43412;-33.800;150.804;2022-07-09T03:14:04;22.80;72.40
57576;DHT22;43412;-33.800;150.804;2022-07-09T03:16:31;22.60;73.00
57576;DHT22;43412;-33.800;150.804;2022-07-09T03:18:59;22.40;73.60
57576;DHT22;43412;-33.800;150.804;2022-07-09T03:21:26;22.30;74.90
57576;DHT22;43412;-33.800;150.804;2022-07-09T03:23:53;22.10;73.00
57576;DHT22;43412;-33.800;150.804;2022-07-09T03:26:20;22.00;74.20
57576;DHT22;43412;-33.800;150.804;2022-07-09T03:28:48;21.90;74.50
57576;DHT22;43412;-33.800;150.804;2022-07-09T03:31:15;21.90;74.90
57576;DHT22;43412;-33.800;150.804;2022-07-09T03:33:43;21.50;74.30
57576;DHT22;43412;-33.800;150.804;2022-07-09T03:36:10;21.10;74.70
57576;DHT22;43412;-33.800;150.804;2022-07-09T03:38:37;20.50;75.50
57576;DHT22;43412;-33.800;150.804;2022-07-09T03:41:05;20.00;77.30
57576;DHT22;43412;-33.800;150.804;2022-07-09T03:43:32;19.50;77.50
57576;DHT22;43412;-33.800;150.804;2022-07-09T03:45:59;19.30;78.60
57576;DHT22;43412;-33.800;150.804;2022-07-09T03:48:27;19.00;79.60
57576;DHT22;43412;-33.800;150.804;2022-07-09T03:50:54;18.70;79.90
57576;DHT22;43412;-33.800;150.804;2022-07-09T03:53:22;18.40;80.20
57576;DHT22;43412;-33.800;150.804;2022-07-09T03:55:49;18.30;81.80
57576;DHT22;43412;-33.800;150.804;2022-07-09T03:58:17;18.10;81.10
57576;DHT22;43412;-33.800;150.804;2022-07-09T04:00:44;18.00;82.50
57576;DHT22;43412;-33.800;150.804;2022-07-09T04:03:11;17.90;82.40
57576;DHT22;43412;-33.800;150.804;2022-07-09T04:05:39;17.70;83.10
57576;DHT22;43412;-33.800;150.804;2022-07-09T04:08:06;17.70;82.60
57576;DHT22;43412;-33.800;150.804;2022-07-09T04:10:33;17.60;83.40
57576;DHT22;43412;-33.800;150.804;2022-07-09T04:13:01;17.40;83.60
57576;DHT22;43412;-33.800;150.804;2022-07-09T04:15:28;17.40;83.70
57576;DHT22;43412;-33.800;150.804;2022-07-09T04:17:55;17.30;83.10
57576;DHT22;43412;-33.800;150.804;2022-07-09T04:20:23;17.20;82.70
57576;DHT22;43412;-33.800;150.804;2022-07-09T04:22:52;17.10;83.40
57576;DHT22;43412;-33.800;150.804;2022-07-09T04:25:19;17.10;83.70
57576;DHT22;43412;-33.800;150.804;2022-07-09T04:27:48;17.00;84.80
57576;DHT22;43412;-33.800;150.804;2022-07-09T04:30:15;16.90;85.10
57576;DHT22;43412;-33.800;150.804;2022-07-09T04:32:42;16.80;84.30
57576;DHT22;43412;-33.800;150.804;2022-07-09T04:35:10;16.70;84.10
57576;DHT22;43412;-33.800;150.804;2022-07-09T04:37:37;16.70;84.30
57576;DHT22;43412;-33.800;150.804;2022-07-09T04:40:05;16.60;84.20
57576;DHT22;43412;-33.800;150.804;2022-07-09T04:42:33;16.60;85.00
57576;DHT22;43412;-33.800;150.804;2022-07-09T04:45:00;16.50;84.70
57576;DHT22;43412;-33.800;150.804;2022-07-09T04:47:28;16.50;85.00
57576;DHT22;43412;-33.800;150.804;2022-07-09T04:49:55;16.40;84.90
57576;DHT22;43412;-33.800;150.804;2022-07-09T04:52:22;16.40;85.60
57576;DHT22;43412;-33.800;150.804;2022-07-09T04:54:53;16.50;85.10
57576;DHT22;43412;-33.800;150.804;2022-07-09T04:57:21;16.40;85.20
57576;DHT22;43412;-33.800;150.804;2022-07-09T04:59:48;16.40;84.90
57576;DHT22;43412;-33.800;150.804;2022-07-09T05:02:15;16.40;85.20
57576;DHT22;43412;-33.800;150.804;2022-07-09T05:04:42;16.40;85.40
57576;DHT22;43412;-33.800;150.804;2022-07-09T05:07:10;16.30;85.80
57576;DHT22;43412;-33.800;150.804;2022-07-09T05:09:37;16.30;85.30
57576;DHT22;43412;-33.800;150.804;2022-07-09T05:12:05;16.20;85.80
57576;DHT22;43412;-33.800;150.804;2022-07-09T05:14:32;16.20;85.90
57576;DHT22;43412;-33.800;150.804;2022-07-09T05:17:00;16.20;86.30
57576;DHT22;43412;-33.800;150.804;2022-07-09T05:19:27;16.20;86.50
57576;DHT22;43412;-33.800;150.804;2022-07-09T05:21:54;16.20;86.60
57576;DHT22;43412;-33.800;150.804;2022-07-09T05:24:22;16.10;86.20
57576;DHT22;43412;-33.800;150.804;2022-07-09T05:26:49;16.10;86.30
57576;DHT22;43412;-33.800;150.804;2022-07-09T05:29:17;16.10;86.60
57576;DHT22;43412;-33.800;150.804;2022-07-09T05:31:44;16.00;87.30
57576;DHT22;43412;-33.800;150.804;2022-07-09T05:34:12;16.00;86.90
57576;DHT22;43412;-33.800;150.804;2022-07-09T05:36:39;16.00;86.90
57576;DHT22;43412;-33.800;150.804;2022-07-09T05:39:07;15.90;87.40
57576;DHT22;43412;-33.800;150.804;2022-07-09T05:41:35;15.90;87.70
57576;DHT22;43412;-33.800;150.804;2022-07-09T05:44:02;15.90;88.20
57576;DHT22;43412;-33.800;150.804;2022-07-09T05:46:30;15.90;87.50
57576;DHT22;43412;-33.800;150.804;2022-07-09T05:48:57;15.90;87.50
57576;DHT22;43412;-33.800;150.804;2022-07-09T05:51:24;15.90;87.60
57576;DHT22;43412;-33.800;150.804;2022-07-09T05:53:52;15.90;87.60
57576;DHT22;43412;-33.800;150.804;2022-07-09T05:56:19;15.90;88.30
57576;DHT22;43412;-33.800;150.804;2022-07-09T05:58:47;15.90;87.60
57576;DHT22;43412;-33.800;150.804;2022-07-09T06:01:15;15.80;88.10
57576;DHT22;43412;-33.800;150.804;2022-07-09T06:03:42;15.90;87.30
57576;DHT22;43412;-33.800;150.804;2022-07-09T06:06:10;15.90;88.20
57576;DHT22;43412;-33.800;150.804;2022-07-09T06:08:37;16.00;88.10
57576;DHT22;43412;-33.800;150.804;2022-07-09T06:11:05;16.10;87.60
57576;DHT22;43412;-33.800;150.804;2022-07-09T06:13:32;16.20;87.90
57576;DHT22;43412;-33.800;150.804;2022-07-09T06:15:59;16.30;88.20
57576;DHT22;43412;-33.800;150.804;2022-07-09T06:18:27;16.40;88.60
57576;DHT22;43412;-33.800;150.804;2022-07-09T06:20:55;16.40;87.20
57576;DHT22;43412;-33.800;150.804;2022-07-09T06:23:22;16.60;87.90
57576;DHT22;43412;-33.800;150.804;2022-07-09T06:25:50;16.60;87.30
57576;DHT22;43412;-33.800;150.804;2022-07-09T06:28:17;16.60;87.40
57576;DHT22;43412;-33.800;150.804;2022-07-09T06:30:45;16.60;87.30
57576;DHT22;43412;-33.800;150.804;2022-07-09T06:33:12;16.50;87.90
57576;DHT22;43412;-33.800;150.804;2022-07-09T06:35:40;16.40;88.30
57576;DHT22;43412;-33.800;150.804;2022-07-09T06:38:07;16.30;88.00
57576;DHT22;43412;-33.800;150.804;2022-07-09T06:40:34;16.10;88.40
57576;DHT22;43412;-33.800;150.804;2022-07-09T06:43:02;15.90;89.50
57576;DHT22;43412;-33.800;150.804;2022-07-09T06:45:30;15.70;89.70
57576;DHT22;43412;-33.800;150.804;2022-07-09T06:47:58;15.60;90.10
57576;DHT22;43412;-33.800;150.804;2022-07-09T06:50:25;15.30;90.40
57576;DHT22;43412;-33.800;150.804;2022-07-09T06:52:52;15.20;90.70
57576;DHT22;43412;-33.800;150.804;2022-07-09T06:55:20;15.10;90.60
57576;DHT22;43412;-33.800;150.804;2022-07-09T06:57:48;15.00;90.90
57576;DHT22;43412;-33.800;150.804;2022-07-09T07:00:15;14.90;90.90
57576;DHT22;43412;-33.800;150.804;2022-07-09T07:02:43;14.80;91.30
57576;DHT22;43412;-33.800;150.804;2022-07-09T07:05:10;14.70;91.60
57576;DHT22;43412;-33.800;150.804;2022-07-09T07:07:37;14.70;91.70
57576;DHT22;43412;-33.800;150.804;2022-07-09T07:10:05;14.60;91.80
57576;DHT22;43412;-33.800;150.804;2022-07-09T07:12:32;14.60;92.30
57576;DHT22;43412;-33.800;150.804;2022-07-09T07:15:00;14.60;92.50
57576;DHT22;43412;-33.800;150.804;2022-07-09T07:17:27;14.50;92.70
57576;DHT22;43412;-33.800;150.804;2022-07-09T07:19:54;14.50;92.40
57576;DHT22;43412;-33.800;150.804;2022-07-09T07:22:22;14.40;92.40
57576;DHT22;43412;-33.800;150.804;2022-07-09T07:24:49;14.40;92.50
57576;DHT22;43412;-33.800;150.804;2022-07-09T07:27:16;14.30;92.80
57576;DHT22;43412;-33.800;150.804;2022-07-09T07:29:44;14.20;92.80
57576;DHT22;43412;-33.800;150.804;2022-07-09T07:32:11;14.10;93.10
57576;DHT22;43412;-33.800;150.804;2022-07-09T07:34:38;14.10;93.20
57576;DHT22;43412;-33.800;150.804;2022-07-09T07:37:06;13.90;93.50
57576;DHT22;43412;-33.800;150.804;2022-07-09T07:39:33;13.80;93.60
57576;DHT22;43412;-33.800;150.804;2022-07-09T07:42:00;13.70;94.00
57576;DHT22;43412;-33.800;150.804;2022-07-09T07:44:28;13.60;93.90
57576;DHT22;43412;-33.800;150.804;2022-07-09T07:46:55;13.50;94.20
57576;DHT22;43412;-33.800;150.804;2022-07-09T07:49:23;13.40;94.30
57576;DHT22;43412;-33.800;150.804;2022-07-09T07:51:51;13.30;94.60
57576;DHT22;43412;-33.800;150.804;2022-07-09T07:54:18;13.20;94.70
57576;DHT22;43412;-33.800;150.804;2022-07-09T07:56:45;13.20;94.50
57576;DHT22;43412;-33.800;150.804;2022-07-09T07:59:13;13.10;94.50
57576;DHT22;43412;-33.800;150.804;2022-07-09T08:01:43;13.00;94.60
57576;DHT22;43412;-33.800;150.804;2022-07-09T08:04:11;13.00;94.90
57576;DHT22;43412;-33.800;150.804;2022-07-09T08:06:38;12.90;95.10
57576;DHT22;43412;-33.800;150.804;2022-07-09T08:09:05;12.90;95.40
57576;DHT22;43412;-33.800;150.804;2022-07-09T08:11:33;12.70;95.60
57576;DHT22;43412;-33.800;150.804;2022-07-09T08:14:00;12.70;95.70
57576;DHT22;43412;-33.800;150.804;2022-07-09T08:16:29;12.60;96.00
57576;DHT22;43412;-33.800;150.804;2022-07-09T08:18:56;12.60;96.20
57576;DHT22;43412;-33.800;150.804;2022-07-09T08:21:24;12.50;96.50
57576;DHT22;43412;-33.800;150.804;2022-07-09T08:23:51;12.30;96.80
57576;DHT22;43412;-33.800;150.804;2022-07-09T08:26:21;12.30;97.00
57576;DHT22;43412;-33.800;150.804;2022-07-09T08:28:49;12.20;97.50
57576;DHT22;43412;-33.800;150.804;2022-07-09T08:31:18;12.10;97.70
57576;DHT22;43412;-33.800;150.804;2022-07-09T08:33:46;12.10;98.00
57576;DHT22;43412;-33.800;150.804;2022-07-09T08:36:13;12.00;98.20
57576;DHT22;43412;-33.800;150.804;2022-07-09T08:38:41;11.90;98.50
57576;DHT22;43412;-33.800;150.804;2022-07-09T08:41:09;11.90;98.60
57576;DHT22;43412;-33.800;150.804;2022-07-09T08:43:38;11.80;98.70
57576;DHT22;43412;-33.800;150.804;2022-07-09T08:46:06;11.80;98.50
57576;DHT22;43412;-33.800;150.804;2022-07-09T08:48:35;11.90;98.70
57576;DHT22;43412;-33.800;150.804;2022-07-09T08:51:03;11.90;98.80
57576;DHT22;43412;-33.800;150.804;2022-07-09T08:53:30;11.90;98.70
57576;DHT22;43412;-33.800;150.804;2022-07-09T08:55:59;11.90;98.70
57576;DHT22;43412;-33.800;150.804;2022-07-09T08:58:26;11.90;98.60
57576;DHT22;43412;-33.800;150.804;2022-07-09T09:00:53;11.90;98.30
57576;DHT22;43412;-33.800;150.804;2022-07-09T09:03:24;11.80;98.30
57576;DHT22;43412;-33.800;150.804;2022-07-09T09:06:08;11.80;98.50
57576;DHT22;43412;-33.800;150.804;2022-07-09T09:08:37;11.70;98.50
57576;DHT22;43412;-33.800;150.804;2022-07-09T09:11:07;11.70;98.60
57576;DHT22;43412;-33.800;150.804;2022-07-09T09:13:41;11.60;98.90
57576;DHT22;43412;-33.800;150.804;2022-07-09T09:16:10;11.50;99.20
57576;DHT22;43412;-33.800;150.804;2022-07-09T09:18:41;11.40;99.10
57576;DHT22;43412;-33.800;150.804;2022-07-09T09:21:09;11.40;99.30
57576;DHT22;43412;-33.800;150.804;2022-07-09T09:23:44;11.30;99.50
57576;DHT22;43412;-33.800;150.804;2022-07-09T09:26:17;11.20;99.70
57576;DHT22;43412;-33.800;150.804;2022-07-09T09:28:58;11.20;99.80
57576;DHT22;43412;-33.800;150.804;2022-07-09T09:31:31;11.10;99.90
57576;DHT22;43412;-33.800;150.804;2022-07-09T09:36:37;11.00;99.90
57576;DHT22;43412;-33.800;150.804;2022-07-09T09:39:12;11.00;99.90
57576;DHT22;43412;-33.800;150.804;2022-07-09T09:41:41;11.00;99.90
57576;DHT22;43412;-33.800;150.804;2022-07-09T09:44:14;11.00;99.90
57576;DHT22;43412;-33.800;150.804;2022-07-09T09:46:43;11.10;99.90
57576;DHT22;43412;-33.800;150.804;2022-07-09T09:49:11;11.10;99.90
57576;DHT22;43412;-33.800;150.804;2022-07-09T09:54:17;11.10;99.90
57576;DHT22;43412;-33.800;150.804;2022-07-09T09:56:45;11.00;99.90
57576;DHT22;43412;-33.800;150.804;2022-07-09T09:59:13;11.00;99.90
57576;DHT22;43412;-33.800;150.804;2022-07-09T10:01:42;11.00;99.90
57576;DHT22;43412;-33.800;150.804;2022-07-09T10:04:11;10.90;99.90
57576;DHT22;43412;-33.800;150.804;2022-07-09T10:06:40;10.90;99.90
57576;DHT22;43412;-33.800;150.804;2022-07-09T10:09:10;10.80;99.90
57576;DHT22;43412;-33.800;150.804;2022-07-09T10:11:45;10.70;99.90
57576;DHT22;43412;-33.800;150.804;2022-07-09T10:16:56;10.50;99.90
57576;DHT22;43412;-33.800;150.804;2022-07-09T10:19:35;10.50;99.90
57576;DHT22;43412;-33.800;150.804;2022-07-09T10:22:04;10.40;99.90
57576;DHT22;43412;-33.800;150.804;2022-07-09T10:24:33;10.30;99.90
57576;DHT22;43412;-33.800;150.804;2022-07-09T10:27:08;10.10;99.90
57576;DHT22;43412;-33.800;150.804;2022-07-09T10:29:50;10.10;99.90
57576;DHT22;43412;-33.800;150.804;2022-07-09T10:32:34;10.00;99.90
57576;DHT22;43412;-33.800;150.804;2022-07-09T10:35:07;10.00;99.90
57576;DHT22;43412;-33.800;150.804;2022-07-09T10:40:19;9.80;99.90
57576;DHT22;43412;-33.800;150.804;2022-07-09T10:42:58;9.80;99.90
57576;DHT22;43412;-33.800;150.804;2022-07-09T10:45:28;9.70;99.90
57576;DHT22;43412;-33.800;150.804;2022-07-09T10:48:00;9.70;99.90
57576;DHT22;43412;-33.800;150.804;2022-07-09T10:50:30;9.70;99.90
57576;DHT22;43412;-33.800;150.804;2022-07-09T10:52:58;9.60;99.90
57576;DHT22;43412;-33.800;150.804;2022-07-09T10:55:30;9.60;99.90
57576;DHT22;43412;-33.800;150.804;2022-07-09T10:57:58;9.60;99.90
57576;DHT22;43412;-33.800;150.804;2022-07-09T11:00:28;9.60;99.90
57576;DHT22;43412;-33.800;150.804;2022-07-09T11:05:25;9.60;99.90
57576;DHT22;43412;-33.800;150.804;2022-07-09T11:08:06;9.60;99.90
57576;DHT22;43412;-33.800;150.804;2022-07-09T11:10:38;9.60;99.90
57576;DHT22;43412;-33.800;150.804;2022-07-09T11:13:07;9.60;99.90
57576;DHT22;43412;-33.800;150.804;2022-07-09T11:15:37;9.60;99.90
57576;DHT22;43412;-33.800;150.804;2022-07-09T11:18:09;9.60;99.90
57576;DHT22;43412;-33.800;150.804;2022-07-09T11:20:44;9.60;99.90
57576;DHT22;43412;-33.800;150.804;2022-07-09T11:23:15;9.50;99.90
57576;DHT22;43412;-33.800;150.804;2022-07-09T11:25:44;9.50;99.90
57576;DHT22;43412;-33.800;150.804;2022-07-09T11:28:20;9.50;99.90
57576;DHT22;43412;-33.800;150.804;2022-07-09T11:31:08;9.50;99.90
57576;DHT22;43412;-33.800;150.804;2022-07-09T11:33:37;9.40;99.90
57576;DHT22;43412;-33.800;150.804;2022-07-09T11:36:22;9.40;99.90
57576;DHT22;43412;-33.800;150.804;2022-07-09T11:38:53;9.40;99.90
57576;DHT22;43412;-33.800;150.804;2022-07-09T11:41:21;9.40;99.90
57576;DHT22;43412;-33.800;150.804;2022-07-09T11:43:50;9.40;99.90
57576;DHT22;43412;-33.800;150.804;2022-07-09T11:46:21;9.30;99.90
57576;DHT22;43412;-33.800;150.804;2022-07-09T11:48:55;9.30;99.90
57576;DHT22;43412;-33.800;150.804;2022-07-09T11:51:32;9.30;99.90
57576;DHT22;43412;-33.800;150.804;2022-07-09T11:54:03;9.20;99.90
57576;DHT22;43412;-33.800;150.804;2022-07-09T11:56:42;9.20;99.90
57576;DHT22;43412;-33.800;150.804;2022-07-09T11:59:12;9.10;99.90
57576;DHT22;43412;-33.800;150.804;2022-07-09T12:01:39;9.10;99.90
57576;DHT22;43412;-33.800;150.804;2022-07-09T12:04:17;9.10;99.90
57576;DHT22;43412;-33.800;150.804;2022-07-09T12:06:51;9.00;99.90
57576;DHT22;43412;-33.800;150.804;2022-07-09T12:09:31;9.00;99.90
57576;DHT22;43412;-33.800;150.804;2022-07-09T12:11:59;9.00;99.90
57576;DHT22;43412;-33.800;150.804;2022-07-09T12:14:27;8.90;99.90
57576;DHT22;43412;-33.800;150.804;2022-07-09T12:16:54;8.90;99.90
57576;DHT22;43412;-33.800;150.804;2022-07-09T12:19:21;8.90;99.90
57576;DHT22;43412;-33.800;150.804;2022-07-09T12:21:49;8.90;99.90
57576;DHT22;43412;-33.800;150.804;2022-07-09T12:24:16;8.80;99.90
57576;DHT22;43412;-33.800;150.804;2022-07-09T12:26:43;8.80;99.90
57576;DHT22;43412;-33.800;150.804;2022-07-09T12:29:11;8.70;99.90
57576;DHT22;43412;-33.800;150.804;2022-07-09T12:31:38;8.70;99.90
57576;DHT22;43412;-33.800;150.804;2022-07-09T12:34:05;8.60;99.90
57576;DHT22;43412;-33.800;150.804;2022-07-09T12:36:33;8.60;99.90
57576;DHT22;43412;-33.800;150.804;2022-07-09T12:39:00;8.50;99.90
57576;DHT22;43412;-33.800;150.804;2022-07-09T12:41:28;8.50;99.90
57576;DHT22;43412;-33.800;150.804;2022-07-09T12:43:55;8.50;99.90
57576;DHT22;43412;-33.800;150.804;2022-07-09T12:46:22;8.50;99.90
57576;DHT22;43412;-33.800;150.804;2022-07-09T12:48:50;8.50;99.90
57576;DHT22;43412;-33.800;150.804;2022-07-09T12:51:17;8.50;99.90
57576;DHT22;43412;-33.800;150.804;2022-07-09T12:53:44;8.60;99.90
57576;DHT22;43412;-33.800;150.804;2022-07-09T12:56:12;8.60;99.90
57576;DHT22;43412;-33.800;150.804;2022-07-09T12:58:39;8.60;99.90
57576;DHT22;43412;-33.800;150.804;2022-07-09T13:01:06;8.60;99.90
57576;DHT22;43412;-33.800;150.804;2022-07-09T13:03:34;8.60;99.90
57576;DHT22;43412;-33.800;150.804;2022-07-09T13:06:01;8.60;99.90
57576;DHT22;43412;-33.800;150.804;2022-07-09T13:08:29;8.60;99.90
57576;DHT22;43412;-33.800;150.804;2022-07-09T13:10:56;8.50;99.90
57576;DHT22;43412;-33.800;150.804;2022-07-09T13:13:23;8.50;99.90
57576;DHT22;43412;-33.800;150.804;2022-07-09T13:15:51;8.50;99.90
57576;DHT22;43412;-33.800;150.804;2022-07-09T13:18:18;8.40;99.90
57576;DHT22;43412;-33.800;150.804;2022-07-09T13:20:46;8.40;99.90
57576;DHT22;43412;-33.800;150.804;2022-07-09T13:23:13;8.40;99.90
57576;DHT22;43412;-33.800;150.804;2022-07-09T13:25:40;8.40;99.90
57576;DHT22;43412;-33.800;150.804;2022-07-09T13:28:08;8.40;99.90
57576;DHT22;43412;-33.800;150.804;2022-07-09T13:30:35;8.40;99.90
57576;DHT22;43412;-33.800;150.804;2022-07-09T13:33:02;8.50;99.90
57576;DHT22;43412;-33.800;150.804;2022-07-09T13:35:30;8.50;99.90
57576;DHT22;43412;-33.800;150.804;2022-07-09T13:37:57;8.50;99.90
57576;DHT22;43412;-33.800;150.804;2022-07-09T13:40:25;8.50;99.90
57576;DHT22;43412;-33.800;150.804;2022-07-09T13:42:52;8.50;99.90
57576;DHT22;43412;-33.800;150.804;2022-07-09T13:45:20;8.50;99.90
57576;DHT22;43412;-33.800;150.804;2022-07-09T13:47:47;8.50;99.90
57576;DHT22;43412;-33.800;150.804;2022-07-09T13:50:14;8.50;99.90
57576;DHT22;43412;-33.800;150.804;2022-07-09T13:52:42;8.50;99.90
57576;DHT22;43412;-33.800;150.804;2022-07-09T13:55:09;8.50;99.90
57576;DHT22;43412;-33.800;150.804;2022-07-09T13:57:37;8.50;99.90
57576;DHT22;43412;-33.800;150.804;2022-07-09T14:00:06;8.40;99.90
57576;DHT22;43412;-33.800;150.804;2022-07-09T14:02:34;8.50;99.90
57576;DHT22;43412;-33.800;150.804;2022-07-09T14:05:02;8.50;99.90
57576;DHT22;43412;-33.800;150.804;2022-07-09T14:07:31;8.50;99.90
57576;DHT22;43412;-33.800;150.804;2022-07-09T14:09:58;8.50;99.90
57576;DHT22;43412;-33.800;150.804;2022-07-09T14:12:26;8.50;99.90
57576;DHT22;43412;-33.800;150.804;2022-07-09T14:14:53;8.50;99.90
57576;DHT22;43412;-33.800;150.804;2022-07-09T14:17:21;8.50;99.90
57576;DHT22;43412;-33.800;150.804;2022-07-09T14:19:50;8.50;99.90
57576;DHT22;43412;-33.800;150.804;2022-07-09T14:22:18;8.40;99.90
57576;DHT22;43412;-33.800;150.804;2022-07-09T14:24:46;8.40;99.90
57576;DHT22;43412;-33.800;150.804;2022-07-09T14:27:13;8.40;99.90
57576;DHT22;43412;-33.800;150.804;2022-07-09T14:29:40;8.40;99.90
57576;DHT22;43412;-33.800;150.804;2022-07-09T14:32:08;8.40;99.90
57576;DHT22;43412;-33.800;150.804;2022-07-09T14:34:35;8.30;99.90
57576;DHT22;43412;-33.800;150.804;2022-07-09T14:37:03;8.30;99.90
57576;DHT22;43412;-33.800;150.804;2022-07-09T14:39:30;8.30;99.90
57576;DHT22;43412;-33.800;150.804;2022-07-09T14:41:57;8.30;99.90
57576;DHT22;43412;-33.800;150.804;2022-07-09T14:44:25;8.30;99.90
57576;DHT22;43412;-33.800;150.804;2022-07-09T14:46:52;8.30;99.90
57576;DHT22;43412;-33.800;150.804;2022-07-09T14:49:24;8.30;99.90
57576;DHT22;43412;-33.800;150.804;2022-07-09T14:51:52;8.30;99.90
57576;DHT22;43412;-33.800;150.804;2022-07-09T14:54:19;8.30;99.90
57576;DHT22;43412;-33.800;150.804;2022-07-09T14:56:47;8.20;99.90
57576;DHT22;43412;-33.800;150.804;2022-07-09T14:59:14;8.20;99.90
57576;DHT22;43412;-33.800;150.804;2022-07-09T15:01:43;8.20;99.90
57576;DHT22;43412;-33.800;150.804;2022-07-09T15:04:11;8.20;99.90
57576;DHT22;43412;-33.800;150.804;2022-07-09T15:06:38;8.20;99.90
57576;DHT22;43412;-33.800;150.804;2022-07-09T15:09:06;8.20;99.90
57576;DHT22;43412;-33.800;150.804;2022-07-09T15:11:34;8.30;99.90
57576;DHT22;43412;-33.800;150.804;2022-07-09T15:14:02;8.30;99.90